Time;durP1;ratioP1;P1;durP2;ratioP2;P2;SDS_P1;SDS_P2;PMS_P1;PMS_P2;Temp;Humidity;BMP_temperature;BMP_pressure;BME280_temperature;BME280_humidity;BME280_pressure;Samples;Min_cycle;Max_cycle;Signal;HPM_P1;HPM_P2
2022/08/22 00:00:10;;;;;;;;;;;;;;;13.96;47.12;97995.63;6243389;28;20012;-62
2022/08/22 00:03:20;;;;;;;;;;;;;;;13.93;45.53;97996.66;6243054;28;20386;-62
2022/08/22 00:06:42;;;;;;;;;;;;;;;13.89;47.06;97993.31;6238253;28;19933;-62
2022/08/22 00:09:43;;;;;;;;;;;;;;;13.83;43.22;97998.97;6242074;28;19929;-62
2022/08/22 00:12:45;;;;;;;;;;;;;;;13.76;43.19;98002.06;6243104;28;20023;-63
2022/08/22 00:16:00;;;;;;;;;;;;;;;13.65;44.38;98000.09;6242559;28;19925;-63
2022/08/22 00:19:01;;;;;;;;;;;;;;;13.56;44.86;97992.69;6242281;28;19925;-63
2022/08/22 00:22:14;;;;;;;;;;;;;;;13.56;45.59;97997.97;6244032;28;20007;-62
2022/08/22 00:25:17;;;;;;;;;;;;;;;13.58;46.26;97996.09;6243070;28;19925;-62
2022/08/22 00:28:28;;;;;;;;;;;;;;;13.57;46.08;97997.88;6242491;28;19931;-63
2022/08/22 00:31:38;;;;;;;;;;;;;;;13.53;48.33;98006.09;6241764;28;20027;-63
2022/08/22 00:34:47;;;;;;;;;;;;;;;13.56;49.03;98003.25;6243599;28;19939;-63
2022/08/22 00:38:05;;;;;;;;;;;;;;;13.58;45.76;98002.22;6242308;28;19925;-62
2022/08/22 00:41:26;;;;;;;;;;;;;;;13.54;44.01;97991.94;6242875;28;19925;-62
2022/08/22 00:44:42;;;;;;;;;;;;;;;13.45;44.88;98001.25;6231031;28;20438;-63
2022/08/22 00:47:55;;;;;;;;;;;;;;;13.41;45.24;97994.44;6242501;28;19925;-62
2022/08/22 00:51:22;;;;;;;;;;;;;;;13.41;45.51;98005.84;6241296;28;19924;-62
2022/08/22 00:54:42;;;;;;;;;;;;;;;13.39;47.61;97997.19;6241311;28;20382;-62
2022/08/22 00:57:43;;;;;;;;;;;;;;;13.39;48.47;98007.75;6245806;28;20619;-63
2022/08/22 01:00:50;;;;;;;;;;;;;;;13.41;48.52;98005.84;6246343;28;19932;-62
2022/08/22 01:04:19;;;;;;;;;;;;;;;13.44;50.97;98008.31;6247551;28;19938;-61
2022/08/22 01:07:35;;;;;;;;;;;;;;;13.53;46.67;98003.44;6246095;28;19925;-62
2022/08/22 01:10:36;;;;;;;;;;;;;;;13.56;45.11;98003.25;6246660;28;19925;-62
2022/08/22 01:13:54;;;;;;;;;;;;;;;13.61;44.95;98003.84;6245875;28;19925;-62
2022/08/22 01:16:59;;;;;;;;;;;;;;;13.64;44.48;98016.88;6245622;28;20389;-63
2022/08/22 01:20:22;;;;;;;;;;;;;;;13.65;48.58;98013.31;6245018;28;19925;-62
2022/08/22 01:23:45;;;;;;;;;;;;;;;13.72;45.45;98008.50;6241583;28;19921;-64
2022/08/22 01:26:58;;;;;;;;;;;;;;;13.77;47.50;98007.28;6242216;28;19925;-62
2022/08/22 01:30:03;;;;;;;;;;;;;;;13.87;50.09;98008.44;6246386;28;19921;-63
2022/08/22 01:33:23;;;;;;;;;;;;;;;13.93;45.98;98010.72;6247042;28;19933;-63
2022/08/22 01:36:33;;;;;;;;;;;;;;;14.03;46.56;98020.75;6244089;28;20455;-62
2022/08/22 01:39:34;;;;;;;;;;;;;;;14.03;46.05;98028.69;6250530;28;20027;-62
2022/08/22 01:42:48;;;;;;;;;;;;;;;14.06;45.22;98028.50;6245407;28;19940;-62
2022/08/22 01:46:15;;;;;;;;;;;;;;;14.09;45.37;98028.31;6246030;28;19925;-63
2022/08/22 01:49:28;;;;;;;;;;;;;;;14.19;45.01;98025.97;6236624;28;19925;-62
2022/08/22 01:52:39;;;;;;;;;;;;;;;14.22;46.06;98029.28;6245663;28;20414;-63
2022/08/22 01:55:51;;;;;;;;;;;;;;;14.28;45.01;98031.53;6245008;28;19979;-63
2022/08/22 01:58:57;;;;;;;;;;;;;;;14.42;45.10;98035.13;6238441;28;19929;-63
2022/08/22 02:02:06;;;;;;;;;;;;;;;14.53;46.13;98043.31;6243533;28;19925;-62
2022/08/22 02:05:16;;;;;;;;;;;;;;;14.61;45.76;98046.31;6245690;28;19948;-63
2022/08/22 02:08:31;;;;;;;;;;;;;;;14.72;45.87;98049.16;6243931;28;20007;-63
2022/08/22 02:11:35;;;;;;;;;;;;;;;14.86;45.57;98056.25;6245494;28;19929;-63
2022/08/22 02:15:08;;;;;;;;;;;;;;;15.00;45.59;98057.97;6243827;28;20378;-62
2022/08/22 02:18:25;;;;;;;;;;;;;;;15.09;46.15;98070.66;6232315;28;20063;-63
2022/08/22 02:21:46;;;;;;;;;;;;;;;15.23;45.56;98069.78;6244773;28;20275;-63
2022/08/22 02:24:58;;;;;;;;;;;;;;;15.36;44.60;98069.81;6244579;28;20027;-63
2022/08/22 02:28:01;;;;;;;;;;;;;;;15.43;44.60;98073.78;6244672;28;19932;-62
2022/08/22 02:31:05;;;;;;;;;;;;;;;15.53;44.64;98076.69;6244323;28;19924;-63
2022/08/22 02:34:25;;;;;;;;;;;;;;;15.58;44.79;98072.78;6244623;28;19924;-63
2022/08/22 02:37:39;;;;;;;;;;;;;;;15.66;44.63;98078.44;6242843;28;19932;-63
2022/08/22 02:40:47;;;;;;;;;;;;;;;15.76;45.00;98072.53;6243137;28;20010;-63
2022/08/22 02:44:11;;;;;;;;;;;;;;;15.87;44.85;98078.81;6244378;28;19925;-63
2022/08/22 02:47:30;;;;;;;;;;;;;;;16.00;45.51;98083.31;6241056;28;19948;-63
2022/08/22 02:50:40;;;;;;;;;;;;;;;16.08;45.74;98073.88;6243964;28;19925;-63
2022/08/22 02:53:44;;;;;;;;;;;;;;;16.19;45.41;98085.56;6244235;28;20014;-62
2022/08/22 02:56:56;;;;;;;;;;;;;;;16.29;45.59;98076.84;6243099;28;20310;-62
2022/08/22 02:59:57;;;;;;;;;;;;;;;16.38;45.70;98086.00;6243083;28;20295;-62
2022/08/22 03:03:05;;;;;;;;;;;;;;;16.46;45.97;98083.66;6241014;28;19925;-63
2022/08/22 03:06:47;;;;;;;;;;;;;;;16.61;45.76;98087.88;6259073;28;19967;-62
2022/08/22 03:09:48;;;;;;;;;;;;;;;16.72;45.74;98091.63;6248234;28;20015;-63
2022/08/22 03:12:49;;;;;;;;;;;;;;;16.76;46.74;98086.03;6265836;28;19980;-63
2022/08/22 03:16:03;;;;;;;;;;;;;;;16.85;45.54;98089.84;6241042;28;19925;-63
2022/08/22 03:19:10;;;;;;;;;;;;;;;16.94;45.89;98089.16;6243094;28;19924;-62
2022/08/22 03:22:18;;;;;;;;;;;;;;;17.03;45.97;98093.81;6243269;28;19925;-63
2022/08/22 03:25:31;;;;;;;;;;;;;;;17.11;45.94;98095.94;6242340;28;19925;-62
2022/08/22 03:28:44;;;;;;;;;;;;;;;17.21;46.21;98098.78;6237277;28;20405;-63
2022/08/22 03:32:06;;;;;;;;;;;;;;;17.31;45.89;98097.16;6242502;28;19925;-63
2022/08/22 03:35:09;;;;;;;;;;;;;;;17.44;46.06;98095.31;6236330;28;19932;-62
2022/08/22 03:38:13;;;;;;;;;;;;;;;17.48;45.93;98098.59;6242113;28;19925;-62
2022/08/22 03:41:50;;;;;;;;;;;;;;;17.56;45.59;98095.38;6243006;28;20055;-63
2022/08/22 03:44:58;;;;;;;;;;;;;;;17.68;45.50;98094.44;6239538;28;19945;-63
2022/08/22 03:48:20;;;;;;;;;;;;;;;17.83;45.55;98098.66;6241926;28;19925;-63
2022/08/22 03:51:40;;;;;;;;;;;;;;;17.95;45.46;98097.75;6241286;28;19925;-63
2022/08/22 03:54:43;;;;;;;;;;;;;;;18.07;45.15;98101.28;6238779;28;20326;-62
2022/08/22 03:57:56;;;;;;;;;;;;;;;18.19;44.77;98099.50;6240481;28;19931;-63
2022/08/22 04:01:03;;;;;;;;;;;;;;;18.35;44.08;98105.38;6241025;28;19932;-63
2022/08/22 04:04:23;;;;;;;;;;;;;;;18.53;43.86;98110.22;6241857;28;20317;-64
2022/08/22 04:07:42;;;;;;;;;;;;;;;18.67;43.19;98111.84;6242307;28;19932;-65
2022/08/22 04:11:01;;;;;;;;;;;;;;;18.81;42.84;98114.28;6235139;28;19925;-67
2022/08/22 04:14:07;;;;;;;;;;;;;;;18.98;42.95;98112.97;6238651;28;19939;-67
2022/08/22 04:17:20;;;;;;;;;;;;;;;19.17;42.59;98123.88;6242419;28;19932;-62
2022/08/22 04:20:33;;;;;;;;;;;;;;;19.38;42.04;98118.59;6240878;28;19931;-62
2022/08/22 04:23:35;;;;;;;;;;;;;;;19.60;41.37;98120.38;6243040;28;19925;-62
2022/08/22 04:26:51;;;;;;;;;;;;;;;19.78;41.28;98117.22;6242945;28;19932;-62
2022/08/22 04:30:02;;;;;;;;;;;;;;;19.93;40.94;98118.63;6241285;28;19925;-62
2022/08/22 04:33:05;;;;;;;;;;;;;;;20.02;40.83;98122.34;6247524;28;20023;-63
2022/08/22 04:36:22;;;;;;;;;;;;;;;20.10;40.54;98127.91;6246208;28;20444;-62
2022/08/22 04:39:37;;;;;;;;;;;;;;;20.28;40.32;98126.34;6251954;28;20413;-63
2022/08/22 04:42:48;;;;;;;;;;;;;;;20.53;39.96;98124.28;6250279;28;19932;-63
2022/08/22 04:45:53;;;;;;;;;;;;;;;20.67;39.55;98115.09;6248973;28;19932;-62
2022/08/22 04:49:06;;;;;;;;;;;;;;;20.81;39.17;98128.09;6249353;28;20010;-62
2022/08/22 04:52:10;;;;;;;;;;;;;;;20.96;38.88;98121.41;6249713;28;20279;-62
2022/08/22 04:55:30;;;;;;;;;;;;;;;21.14;38.86;98112.75;6249822;28;20028;-63
2022/08/22 04:58:54;;;;;;;;;;;;;;;21.33;38.45;98117.31;6249449;28;19924;-63
2022/08/22 05:01:57;;;;;;;;;;;;;;;21.62;38.11;98112.06;6250504;28;19925;-63
2022/08/22 05:05:03;;;;;;;;;;;;;;;21.80;37.92;98110.41;6249233;28;20019;-63
2022/08/22 05:11:30;;;;;;;;;;;;;;;24.61;34.61;98112.81;6292522;22;19933;-65
2022/08/22 05:14:37;;;;;;;;;;;;;;;27.88;30.84;98123.81;6219516;28;20060;-64
2022/08/22 05:17:42;;;;;;;;;;;;;;;31.95;26.44;98124.69;6210586;28;20024;-64
2022/08/22 05:20:46;;;;;;;;;;;;;;;35.39;22.65;98139.13;6222338;28;19932;-63
2022/08/22 05:23:53;;;;;;;;;;;;;;;38.12;20.32;98150.03;6220747;28;19929;-66
2022/08/22 05:26:58;;;;;;;;;;;;;;;40.31;18.98;98142.56;6222012;28;19936;-64
2022/08/22 05:30:08;;;;;;;;;;;;;;;42.32;18.30;98158.19;6221438;28;20320;-63
2022/08/22 05:33:15;;;;;;;;;;;;;;;44.31;16.60;98145.03;6200020;28;20353;-64
2022/08/22 05:36:22;;;;;;;;;;;;;;;45.70;15.85;98153.78;6214816;28;20379;-63
2022/08/22 05:39:27;;;;;;;;;;;;;;;46.78;14.92;98151.13;6222106;28;19926;-64
2022/08/22 05:42:32;;;;;;;;;;;;;;;47.84;14.17;98160.56;6223818;28;20114;-65
2022/08/22 05:45:39;;;;;;;;;;;;;;;48.50;13.52;98149.88;6213149;28;19925;-65
2022/08/22 05:48:42;;;;;;;;;;;;;;;49.24;12.80;98151.41;6220965;28;20020;-64
2022/08/22 05:51:52;;;;;;;;;;;;;;;49.37;12.17;98150.44;6238569;28;19931;-66
2022/08/22 05:55:00;;;;;;;;;;;;;;;50.08;11.73;98146.72;6217078;28;19929;-65
2022/08/22 05:58:04;;;;;;;;;;;;;;;50.56;11.35;98140.16;6210785;28;19932;-63
2022/08/22 06:01:05;;;;;;;;;;;;;;;51.16;11.17;98147.66;6220939;28;19925;-67
2022/08/22 06:04:21;;;;;;;;;;;;;;;51.45;10.03;98143.28;6219672;28;19933;-65
2022/08/22 06:07:25;;;;;;;;;;;;;;;51.68;9.92;98143.00;6215798;28;19925;-64
2022/08/22 06:10:38;;;;;;;;;;;;;;;52.20;9.34;98139.84;6222059;28;19926;-63
2022/08/22 06:13:44;;;;;;;;;;;;;;;51.97;9.49;98137.34;6220294;28;19925;-63
2022/08/22 06:16:52;;;;;;;;;;;;;;;51.52;9.28;98125.91;6221062;28;19932;-64
2022/08/22 06:19:59;;;;;;;;;;;;;;;52.32;9.24;98131.50;6220084;28;20298;-64
2022/08/22 06:23:06;;;;;;;;;;;;;;;52.75;7.73;98127.50;6217531;28;20032;-64
2022/08/22 06:26:10;;;;;;;;;;;;;;;53.13;8.21;98123.63;6206560;28;20452;-64
2022/08/22 06:29:16;;;;;;;;;;;;;;;53.46;8.39;98129.16;6219682;28;20052;-63
2022/08/22 06:32:24;;;;;;;;;;;;;;;53.85;8.23;98129.63;6219823;28;19929;-63
2022/08/22 06:36:29;;;;;;;;;;;;;;;54.13;8.37;98123.25;6219975;28;20035;-64
2022/08/22 06:38:58;;;;;;;;;;;;;;;54.89;7.99;98127.03;6219347;28;19925;-64
2022/08/22 06:42:08;;;;;;;;;;;;;;;55.35;8.01;98121.81;6214863;28;20084;-65
2022/08/22 06:45:23;;;;;;;;;;;;;;;55.37;7.45;98125.09;6209800;28;19944;-63
2022/08/22 06:48:28;;;;;;;;;;;;;;;54.86;7.68;98110.84;6212438;28;19932;-63
2022/08/22 06:51:34;;;;;;;;;;;;;;;54.45;7.94;98107.31;6217036;28;19925;-64
2022/08/22 06:54:42;;;;;;;;;;;;;;;54.01;7.38;98104.38;6219534;28;19972;-64
2022/08/22 06:57:52;;;;;;;;;;;;;;;53.17;7.41;98094.44;6216910;28;19925;-64
2022/08/22 07:00:57;;;;;;;;;;;;;;;53.21;7.50;98097.38;6213529;28;19926;-63
2022/08/22 07:04:03;;;;;;;;;;;;;;;53.37;7.39;98091.91;6213760;28;20382;-65
2022/08/22 07:07:09;;;;;;;;;;;;;;;51.65;8.48;98089.19;6216983;28;19925;-65
2022/08/22 07:10:15;;;;;;;;;;;;;;;50.86;8.82;98084.25;6216446;28;19940;-64
2022/08/22 07:13:18;;;;;;;;;;;;;;;52.51;8.11;98095.31;6216913;28;20071;-64
2022/08/22 07:16:46;;;;;;;;;;;;;;;53.75;7.22;98090.72;6218707;28;19921;-63
2022/08/22 07:20:03;;;;;;;;;;;;;;;53.68;7.61;98080.06;6204430;28;19929;-64
2022/08/22 07:23:12;;;;;;;;;;;;;;;52.43;7.95;98075.72;6208195;28;20453;-64
2022/08/22 07:26:21;;;;;;;;;;;;;;;51.70;8.32;98070.53;6217233;28;20152;-64
2022/08/22 07:29:32;;;;;;;;;;;;;;;52.13;8.04;98077.81;6216179;28;20019;-64
2022/08/22 07:32:41;;;;;;;;;;;;;;;50.03;8.97;98068.53;6215423;28;20298;-64
2022/08/22 07:35:49;;;;;;;;;;;;;;;50.02;9.30;98064.06;6210164;28;20390;-65
2022/08/22 07:38:52;;;;;;;;;;;;;;;51.36;8.62;98061.16;6208185;28;19925;-64
2022/08/22 07:42:26;;;;;;;;;;;;;;;52.48;8.30;98065.09;6215950;28;20013;-64
2022/08/22 07:45:32;;;;;;;;;;;;;;;51.72;8.41;98057.78;6195644;28;20068;-64
2022/08/22 07:48:45;;;;;;;;;;;;;;;49.99;9.26;98042.34;6210109;28;19926;-65
2022/08/22 07:52:01;;;;;;;;;;;;;;;46.91;10.63;98038.09;6235389;28;19980;-63
2022/08/22 07:55:15;;;;;;;;;;;;;;;46.41;11.11;98039.84;6215783;28;20282;-64
2022/08/22 07:58:18;;;;;;;;;;;;;;;48.54;9.80;98044.78;6196650;28;19972;-64
2022/08/22 08:01:20;;;;;;;;;;;;;;;50.86;8.77;98045.84;6217428;28;19933;-64
2022/08/22 08:04:28;;;;;;;;;;;;;;;49.47;9.72;98036.66;6220753;28;19929;-64
2022/08/22 08:07:31;;;;;;;;;;;;;;;45.17;11.71;98028.78;6220955;28;21339;-64
2022/08/22 08:10:41;;;;;;;;;;;;;;;42.20;13.80;98024.84;6224391;28;19929;-64
2022/08/22 08:13:51;;;;;;;;;;;;;;;44.58;12.22;98023.25;6216738;28;20195;-64
2022/08/22 08:16:52;;;;;;;;;;;;;;;47.55;10.38;98032.63;6220467;28;19936;-64
2022/08/22 08:19:54;;;;;;;;;;;;;;;48.51;10.12;98034.25;6225594;28;20277;-65
2022/08/22 08:22:58;;;;;;;;;;;;;;;48.47;10.25;98026.81;6239842;28;19930;-65
2022/08/22 08:26:06;;;;;;;;;;;;;;;47.41;10.56;98023.44;6225454;28;20378;-63
2022/08/22 08:29:07;;;;;;;;;;;;;;;47.30;10.89;98022.00;6220511;28;19972;-64
2022/08/22 08:32:13;;;;;;;;;;;;;;;45.18;11.87;98008.19;6201393;28;20310;-63
2022/08/22 08:35:24;;;;;;;;;;;;;;;45.07;12.17;98014.97;6223746;28;19925;-64
2022/08/22 08:38:32;;;;;;;;;;;;;;;43.27;13.55;97993.38;6224725;28;19957;-64
2022/08/22 08:41:54;;;;;;;;;;;;;;;44.32;12.79;98008.78;6226009;28;19929;-64
2022/08/22 08:45:15;;;;;;;;;;;;;;;47.31;10.73;98006.91;6225213;28;19925;-64
2022/08/22 08:48:36;;;;;;;;;;;;;;;47.70;10.52;98003.53;6202180;28;19973;-64
2022/08/22 08:51:43;;;;;;;;;;;;;;;47.87;10.56;98002.91;6199006;28;19932;-64
2022/08/22 08:54:50;;;;;;;;;;;;;;;45.65;11.81;98001.75;6223950;28;20393;-64
2022/08/22 08:58:22;;;;;;;;;;;;;;;44.42;12.61;97996.81;6225097;28;20028;-64
2022/08/22 09:01:28;;;;;;;;;;;;;;;46.34;11.42;97993.72;6204338;28;19933;-63
2022/08/22 09:04:47;;;;;;;;;;;;;;;46.51;11.23;97995.91;6221142;28;19925;-65
2022/08/22 09:08:00;;;;;;;;;;;;;;;46.31;11.37;97983.19;6223679;28;19930;-64
2022/08/22 09:11:19;;;;;;;;;;;;;;;45.62;11.77;97991.22;6224395;28;19925;-63
2022/08/22 09:14:21;;;;;;;;;;;;;;;44.41;12.44;97981.25;6222759;28;19988;-63
2022/08/22 09:17:27;;;;;;;;;;;;;;;43.22;13.11;97980.38;6222415;28;19925;-63
2022/08/22 09:20:47;;;;;;;;;;;;;;;44.54;12.37;97972.25;6217531;28;20418;-64
2022/08/22 09:23:54;;;;;;;;;;;;;;;47.14;10.66;97977.75;6222537;28;19925;-71
2022/08/22 09:27:01;;;;;;;;;;;;;;;49.00;9.93;97973.69;6219833;28;20429;-64
2022/08/22 09:30:10;;;;;;;;;;;;;;;50.45;9.18;97979.22;6221073;28;19926;-64
2022/08/22 09:33:13;;;;;;;;;;;;;;;51.55;8.56;97982.16;6221434;28;20080;-65
2022/08/22 09:36:20;;;;;;;;;;;;;;;52.31;8.22;97979.00;6220423;28;20530;-65
2022/08/22 09:39:27;;;;;;;;;;;;;;;51.88;8.39;97976.63;6220766;28;20412;-65
2022/08/22 09:42:31;;;;;;;;;;;;;;;49.39;9.36;97969.19;6219990;28;19968;-66
2022/08/22 09:45:39;;;;;;;;;;;;;;;46.80;10.84;97953.91;6222809;28;19925;-64
2022/08/22 09:48:43;;;;;;;;;;;;;;;45.31;11.95;97957.47;6222583;28;19925;-67
2022/08/22 09:52:04;;;;;;;;;;;;;;;46.42;11.06;97957.97;6223402;28;20310;-68
2022/08/22 09:55:16;;;;;;;;;;;;;;;47.47;10.49;97950.53;6210261;28;19926;-68
2022/08/22 09:58:26;;;;;;;;;;;;;;;45.74;11.29;97951.84;6199850;28;19932;-68
2022/08/22 10:01:30;;;;;;;;;;;;;;;43.06;12.92;97948.31;6211501;28;20387;-67
2022/08/22 10:04:40;;;;;;;;;;;;;;;44.05;12.72;97947.44;6222955;28;19925;-68
2022/08/22 10:08:01;;;;;;;;;;;;;;;45.40;11.43;97950.09;6222267;28;19932;-70
2022/08/22 10:11:14;;;;;;;;;;;;;;;46.44;10.86;97950.16;6203332;28;20306;-65
2022/08/22 10:14:27;;;;;;;;;;;;;;;45.26;11.45;97950.00;6220307;28;20028;-65
2022/08/22 10:17:37;;;;;;;;;;;;;;;43.30;13.12;97942.13;6217308;28;20084;-65
2022/08/22 10:21:02;;;;;;;;;;;;;;;42.26;13.56;97934.38;6219312;28;19925;-65
2022/08/22 10:24:19;;;;;;;;;;;;;;;41.90;14.06;97932.50;6207575;28;19925;-65
2022/08/22 10:27:34;;;;;;;;;;;;;;;41.27;14.69;97929.03;6221058;28;19932;-69
2022/08/22 10:30:46;;;;;;;;;;;;;;;39.37;16.06;97926.09;6213961;28;19925;-69
2022/08/22 10:34:08;;;;;;;;;;;;;;;37.37;17.51;97916.75;6219459;28;20351;-69
2022/08/22 10:37:29;;;;;;;;;;;;;;;36.82;18.60;97920.88;6209125;28;20080;-69
2022/08/22 10:40:50;;;;;;;;;;;;;;;38.48;17.00;97921.66;6237586;28;19925;-67
2022/08/22 10:43:54;;;;;;;;;;;;;;;40.02;15.83;97918.69;6224188;28;19948;-68
2022/08/22 10:47:07;;;;;;;;;;;;;;;41.00;14.93;97919.00;6203243;28;19925;-69
2022/08/22 10:50:15;;;;;;;;;;;;;;;41.57;14.60;97922.78;6243283;28;19925;-68
2022/08/22 10:53:36;;;;;;;;;;;;;;;41.29;14.73;97916.63;6225526;28;19925;-67
2022/08/22 10:56:45;;;;;;;;;;;;;;;40.86;15.13;97922.56;6215396;28;19936;-68
2022/08/22 10:59:48;;;;;;;;;;;;;;;39.37;16.26;97906.81;6217585;28;19984;-69
2022/08/22 11:03:08;;;;;;;;;;;;;;;37.44;17.65;97914.69;6216969;28;19932;-67
2022/08/22 11:06:17;;;;;;;;;;;;;;;35.65;19.30;97906.13;6218770;28;19931;-66
2022/08/22 11:09:48;;;;;;;;;;;;;;;34.59;20.18;97902.06;6219433;28;19932;-66
2022/08/22 11:13:01;;;;;;;;;;;;;;;34.05;21.17;97900.91;6214999;28;19925;-66
2022/08/22 11:16:21;;;;;;;;;;;;;;;35.52;19.83;97895.34;6217991;28;19925;-66
2022/08/22 11:19:43;;;;;;;;;;;;;;;37.04;18.47;97894.47;6219510;28;19933;-65
2022/08/22 11:22:58;;;;;;;;;;;;;;;35.99;19.22;97889.97;6218148;28;20643;-65
2022/08/22 11:26:09;;;;;;;;;;;;;;;34.50;20.37;97892.47;6218441;28;20386;-65
2022/08/22 11:29:16;;;;;;;;;;;;;;;33.91;21.17;97892.81;6210159;28;19934;-65
2022/08/22 11:32:34;;;;;;;;;;;;;;;33.98;20.75;97895.50;6219167;28;19930;-65
2022/08/22 11:36:01;;;;;;;;;;;;;;;33.50;20.90;97896.91;6216892;28;20298;-66
2022/08/22 11:39:07;;;;;;;;;;;;;;;33.52;21.56;97886.66;6209588;28;19930;-66
2022/08/22 11:42:26;;;;;;;;;;;;;;;34.33;21.06;97882.13;6218302;28;20306;-66
2022/08/22 11:45:35;;;;;;;;;;;;;;;34.95;20.39;97889.41;6239117;28;20361;-66
2022/08/22 11:49:09;;;;;;;;;;;;;;;34.49;21.00;97885.34;6227539;28;19932;-66
2022/08/22 11:52:19;;;;;;;;;;;;;;;33.38;21.85;97890.50;6196638;28;19934;-65
2022/08/22 11:55:26;;;;;;;;;;;;;;;32.82;22.46;97888.50;6232554;28;19937;-65
2022/08/22 11:58:38;;;;;;;;;;;;;;;32.72;22.78;97890.84;6219703;28;19921;-66
2022/08/22 12:01:41;;;;;;;;;;;;;;;33.21;21.99;97881.19;6221362;28;19929;-65
2022/08/22 12:04:48;;;;;;;;;;;;;;;33.74;21.57;97878.06;6221342;28;20343;-66
2022/08/22 12:08:02;;;;;;;;;;;;;;;33.85;21.73;97880.06;6219801;28;20462;-66
2022/08/22 12:11:06;;;;;;;;;;;;;;;33.74;21.75;97884.38;6207657;28;19926;-67
2022/08/22 12:14:17;;;;;;;;;;;;;;;33.38;21.48;97884.22;6212928;28;20322;-65
2022/08/22 12:17:18;;;;;;;;;;;;;;;33.19;22.06;97888.75;6218814;28;20016;-65
2022/08/22 12:20:25;;;;;;;;;;;;;;;33.26;22.00;97881.34;6220212;28;19925;-65
2022/08/22 12:23:40;;;;;;;;;;;;;;;33.68;21.61;97885.25;6218447;28;19965;-65
2022/08/22 12:26:53;;;;;;;;;;;;;;;33.91;21.43;97881.88;6216387;28;20016;-66
2022/08/22 12:30:00;;;;;;;;;;;;;;;34.39;20.95;97875.75;6218945;28;19925;-65
2022/08/22 12:33:05;;;;;;;;;;;;;;;34.63;20.71;97879.50;6217522;28;20310;-64
2022/08/22 12:36:21;;;;;;;;;;;;;;;34.83;20.58;97876.53;6217489;28;20004;-66
2022/08/22 12:39:31;;;;;;;;;;;;;;;35.07;20.58;97879.38;6218543;28;19932;-66
2022/08/22 12:42:38;;;;;;;;;;;;;;;34.99;20.37;97868.72;6218830;28;20015;-66
2022/08/22 12:45:40;;;;;;;;;;;;;;;34.50;20.76;97865.13;6215992;28;19932;-65
2022/08/22 12:49:07;;;;;;;;;;;;;;;34.49;20.74;97868.94;6218184;28;20083;-66
2022/08/22 12:52:23;;;;;;;;;;;;;;;34.71;20.69;97870.16;6180701;28;20287;-66
2022/08/22 12:55:27;;;;;;;;;;;;;;;34.76;20.59;97862.09;6221732;28;19925;-66
2022/08/22 12:58:40;;;;;;;;;;;;;;;34.42;20.80;97863.53;6222255;28;19925;-65
2022/08/22 13:01:47;;;;;;;;;;;;;;;34.19;21.12;97859.59;6220420;28;20016;-66
2022/08/22 13:04:58;;;;;;;;;;;;;;;33.88;21.03;97860.50;6220158;28;20393;-65
2022/08/22 13:08:06;;;;;;;;;;;;;;;33.71;21.22;97862.13;6221598;28;19925;-66
2022/08/22 13:11:10;;;;;;;;;;;;;;;33.33;21.74;97860.31;6221212;28;19925;-66
2022/08/22 13:14:12;;;;;;;;;;;;;;;33.02;21.91;97864.72;6221348;28;20048;-65
2022/08/22 13:17:16;;;;;;;;;;;;;;;32.60;22.57;97860.72;6215680;28;19928;-66
2022/08/22 13:20:28;;;;;;;;;;;;;;;32.47;22.54;97867.06;6222844;28;20016;-66
2022/08/22 13:23:36;;;;;;;;;;;;;;;32.12;23.02;97864.59;6223097;28;19929;-66
2022/08/22 13:26:49;;;;;;;;;;;;;;;31.62;23.97;97858.78;6224786;28;19926;-66
2022/08/22 13:29:55;;;;;;;;;;;;;;;31.19;24.29;97861.84;6221478;28;19930;-65
2022/08/22 13:33:02;;;;;;;;;;;;;;;31.04;24.29;97861.19;6221876;28;20020;-66
2022/08/22 13:36:13;;;;;;;;;;;;;;;30.81;24.68;97862.38;6219799;28;19926;-65
2022/08/22 13:39:14;;;;;;;;;;;;;;;30.71;25.25;97861.91;6221140;28;19925;-67
2022/08/22 13:42:17;;;;;;;;;;;;;;;30.52;25.51;97862.69;6221973;28;19925;-65
2022/08/22 13:45:26;;;;;;;;;;;;;;;30.37;25.13;97866.34;6221264;28;19932;-66
2022/08/22 13:48:29;;;;;;;;;;;;;;;30.17;25.33;97859.94;6220391;28;20299;-66
2022/08/22 13:51:39;;;;;;;;;;;;;;;30.03;25.62;97869.88;6221076;28;19932;-65
2022/08/22 13:54:40;;;;;;;;;;;;;;;29.97;25.64;97866.09;6216730;28;19937;-65
2022/08/22 13:57:43;;;;;;;;;;;;;;;30.02;25.58;97867.38;6219585;28;20015;-66
2022/08/22 14:01:09;;;;;;;;;;;;;;;30.02;25.71;97861.97;6218951;28;19925;-66
2022/08/22 14:04:25;;;;;;;;;;;;;;;29.71;26.18;97874.88;6207850;28;19926;-65
2022/08/22 14:07:30;;;;;;;;;;;;;;;29.62;26.49;97870.63;6220173;28;19925;-65
2022/08/22 14:10:34;;;;;;;;;;;;;;;29.50;26.96;97869.47;6216340;28;19926;-66
2022/08/22 14:13:58;;;;;;;;;;;;;;;29.39;27.13;97870.84;6220428;28;20275;-66
2022/08/22 14:17:01;;;;;;;;;;;;;;;29.45;27.33;97872.75;6212731;28;19975;-66
2022/08/22 14:20:22;;;;;;;;;;;;;;;29.32;27.52;97872.63;6219520;28;20371;-66
2022/08/22 14:23:27;;;;;;;;;;;;;;;29.12;27.58;97879.75;6211874;28;19926;-65
2022/08/22 14:26:32;;;;;;;;;;;;;;;29.05;27.91;97877.81;6217569;28;20071;-66
2022/08/22 14:29:39;;;;;;;;;;;;;;;28.87;28.12;97869.22;6220064;28;19933;-67
2022/08/22 14:32:50;;;;;;;;;;;;;;;28.72;28.29;97879.28;6220049;28;20023;-65
2022/08/22 14:35:56;;;;;;;;;;;;;;;28.57;28.53;97877.44;6219817;28;19925;-65
2022/08/22 14:39:05;;;;;;;;;;;;;;;28.54;28.79;97885.09;6211775;28;19926;-65
2022/08/22 14:42:18;;;;;;;;;;;;;;;28.35;29.29;97870.25;6212247;28;19952;-66
2022/08/22 14:45:27;;;;;;;;;;;;;;;28.17;29.39;97884.16;6214869;28;19925;-65
2022/08/22 14:48:31;;;;;;;;;;;;;;;27.91;29.94;97881.88;6220908;28;19929;-66
2022/08/22 14:51:35;;;;;;;;;;;;;;;27.67;30.31;97877.53;6218407;28;19932;-65
2022/08/22 14:54:37;;;;;;;;;;;;;;;27.43;30.83;97882.16;6219119;28;19926;-67
2022/08/22 14:57:48;;;;;;;;;;;;;;;27.11;31.44;97877.78;6218562;28;20028;-66
2022/08/22 15:00:50;;;;;;;;;;;;;;;26.80;31.62;97881.34;6216036;28;19930;-67
2022/08/22 15:03:53;;;;;;;;;;;;;;;26.65;32.50;97877.75;6219579;28;20068;-68
2022/08/22 15:07:01;;;;;;;;;;;;;;;26.36;32.41;97879.19;6220737;28;20774;-69
2022/08/22 15:10:05;;;;;;;;;;;;;;;26.16;32.74;97884.16;6221317;28;19926;-68
2022/08/22 15:13:07;;;;;;;;;;;;;;;26.09;32.62;97885.00;6217604;28;19929;-67
2022/08/22 15:16:19;;;;;;;;;;;;;;;26.11;33.31;97888.38;6208240;28;20104;-69
2022/08/22 15:19:40;;;;;;;;;;;;;;;25.91;33.57;97886.06;6217070;28;19925;-68
2022/08/22 15:22:44;;;;;;;;;;;;;;;25.78;34.16;97899.19;6200713;28;19967;-69
2022/08/22 15:25:57;;;;;;;;;;;;;;;25.68;34.14;97891.31;6218144;28;19925;-69
2022/08/22 15:29:15;;;;;;;;;;;;;;;25.58;34.69;97895.19;6217834;28;19944;-68
2022/08/22 15:32:19;;;;;;;;;;;;;;;25.33;35.13;97891.63;6216566;28;19932;-68
2022/08/22 15:35:27;;;;;;;;;;;;;;;25.20;35.42;97897.53;6212758;28;20386;-69
2022/08/22 15:38:30;;;;;;;;;;;;;;;25.07;35.14;97901.50;6218747;28;19925;-68
2022/08/22 15:41:34;;;;;;;;;;;;;;;24.93;35.47;97904.84;6218550;28;20804;-68
2022/08/22 15:44:39;;;;;;;;;;;;;;;24.84;36.24;97903.16;6215532;28;19925;-68
2022/08/22 15:47:48;;;;;;;;;;;;;;;24.77;36.68;97902.09;6217624;28;19925;-69
2022/08/22 15:50:55;;;;;;;;;;;;;;;24.68;36.84;97908.47;6213219;28;19931;-68
2022/08/22 15:54:04;;;;;;;;;;;;;;;24.57;37.23;97906.94;6220585;28;19929;-69
2022/08/22 15:57:11;;;;;;;;;;;;;;;24.49;37.61;97912.31;6220681;28;20339;-68
2022/08/22 16:00:31;;;;;;;;;;;;;;;24.41;38.08;97913.91;6217472;28;20025;-68
2022/08/22 16:03:37;;;;;;;;;;;;;;;24.37;38.58;97911.69;6218600;28;20295;-67
2022/08/22 16:06:47;;;;;;;;;;;;;;;24.26;38.27;97914.66;6218813;28;20398;-68
2022/08/22 16:09:53;;;;;;;;;;;;;;;24.30;38.17;97910.66;6213559;28;19925;-69
2022/08/22 16:13:15;;;;;;;;;;;;;;;24.37;37.80;97906.31;6220634;28;19929;-68
2022/08/22 16:16:25;;;;;;;;;;;;;;;24.48;38.33;97914.13;6218111;28;19926;-67
2022/08/22 16:19:31;;;;;;;;;;;;;;;24.61;37.91;97935.22;6213427;28;19922;-68
2022/08/22 16:23:02;;;;;;;;;;;;;;;24.96;38.83;97971.00;6217370;28;19925;-67
2022/08/22 16:26:09;;;;;;;;;;;;;;;24.16;45.76;97996.31;6202495;28;19925;-68
2022/08/22 16:29:24;;;;;;;;;;;;;;;22.85;50.41;97984.28;6222641;28;19925;-65
2022/08/22 16:32:27;;;;;;;;;;;;;;;22.27;53.08;97986.38;6221827;28;19925;-67
2022/08/22 16:35:46;;;;;;;;;;;;;;;21.74;54.56;97977.84;6223365;28;20422;-69